Time;durP1;ratioP1;P1;durP2;ratioP2;P2;SDS_P1;SDS_P2;PMS_P1;PMS_P2;Temp;Humidity;BMP_temperature;BMP_pressure;BME280_temperature;BME280_humidity;BME280_pressure;Samples;Min_cycle;Max_cycle;Signal;HPM_P1;HPM_P2
2021/06/15 00:00:15;;;;;;;19.42;12.00;;;;;;;20.54;61.60;101856.34;5072554;28;20055;-50
2021/06/15 00:02:42;;;;;;;20.60;13.15;;;;;;;20.55;61.14;101856.06;5072562;28;20047;-52
2021/06/15 00:05:11;;;;;;;19.92;12.40;;;;;;;20.67;60.81;101852.75;5072697;28;20044;-51
2021/06/15 00:07:39;;;;;;;18.00;11.80;;;;;;;20.70;61.06;101859.63;5071962;28;20111;-50
2021/06/15 00:10:14;;;;;;;19.25;11.57;;;;;;;20.56;61.48;101848.56;5072596;28;20074;-52
2021/06/15 00:12:42;;;;;;;19.00;10.77;;;;;;;20.48;62.01;101850.09;5072263;28;20406;-49
2021/06/15 00:15:11;;;;;;;20.63;10.93;;;;;;;20.48;61.94;101852.88;5072743;28;20067;-51
2021/06/15 00:17:39;;;;;;;20.15;11.50;;;;;;;20.49;61.84;101842.59;5071981;28;20098;-50
2021/06/15 00:20:08;;;;;;;20.63;12.32;;;;;;;20.46;61.95;101852.34;5072382;28;20078;-52
2021/06/15 00:22:35;;;;;;;16.08;10.88;;;;;;;20.52;61.76;101853.09;5071174;28;20079;-51
2021/06/15 00:25:04;;;;;;;15.38;10.57;;;;;;;20.54;61.83;101843.34;5058749;28;20079;-53
2021/06/15 00:27:32;;;;;;;19.83;11.95;;;;;;;20.62;61.55;101850.13;5072200;28;20430;-52
2021/06/15 00:30:00;;;;;;;19.45;11.05;;;;;;;20.59;61.86;101851.56;5071841;28;20048;-54
2021/06/15 00:32:28;;;;;;;19.48;11.23;;;;;;;20.47;62.26;101853.16;5072422;28;20049;-48
2021/06/15 00:34:56;;;;;;;19.02;10.80;;;;;;;20.33;62.75;101851.25;5072073;28;20086;-51
2021/06/15 00:37:23;;;;;;;19.98;11.13;;;;;;;20.23;63.21;101859.78;5071694;28;20063;-48
2021/06/15 00:39:51;;;;;;;16.98;11.45;;;;;;;20.21;63.08;101850.97;5072037;28;20049;-48
2021/06/15 00:42:19;;;;;;;18.52;11.10;;;;;;;20.23;63.13;101854.25;5072154;28;20047;-46
2021/06/15 00:44:47;;;;;;;17.23;10.75;;;;;;;20.25;62.96;101849.19;5070997;28;20040;-47
2021/06/15 00:47:15;;;;;;;17.30;10.82;;;;;;;20.35;62.64;101857.31;5075500;28;20041;-48
2021/06/15 00:49:44;;;;;;;16.13;10.43;;;;;;;20.32;62.85;101859.84;5074974;28;20566;-50
2021/06/15 00:52:12;;;;;;;14.88;9.75;;;;;;;20.31;62.68;101856.28;5074561;28;20059;-49
2021/06/15 00:54:44;;;;;;;18.63;10.48;;;;;;;20.33;62.57;101854.03;5076546;28;20052;-51
2021/06/15 00:57:18;;;;;;;17.13;10.35;;;;;;;20.35;62.37;101862.84;5075907;28;20423;-51
2021/06/15 00:59:46;;;;;;;19.42;10.73;;;;;;;20.29;62.63;101864.06;5076387;28;20528;-52
2021/06/15 01:02:14;;;;;;;17.40;10.63;;;;;;;20.14;62.98;101867.16;5074646;28;20051;-51
2021/06/15 01:04:43;;;;;;;17.77;10.07;;;;;;;20.13;63.32;101866.34;5074181;28;20052;-52
2021/06/15 01:07:44;;;;;;;14.93;9.48;;;;;;;20.15;62.92;101863.25;5074857;28;20083;-50
2021/06/15 01:10:39;;;;;;;16.98;9.25;;;;;;;20.10;63.06;101866.13;5033369;28;20049;-49
2021/06/15 01:13:13;;;;;;;21.35;9.90;;;;;;;20.04;63.12;101861.84;5017184;28;20452;-50
2021/06/15 01:15:51;;;;;;;17.30;9.93;;;;;;;19.92;63.63;101867.88;5017080;28;20057;-50
2021/06/15 01:18:23;;;;;;;15.98;9.82;;;;;;;19.85;63.90;101868.25;5001006;28;20540;-50
2021/06/15 01:20:53;;;;;;;15.43;9.45;;;;;;;19.82;63.80;101868.88;5016722;28;20504;-52
2021/06/15 01:23:51;;;;;;;13.93;9.20;;;;;;;19.74;63.92;101869.56;5016986;28;20046;-51
2021/06/15 01:26:51;;;;;;;16.77;10.18;;;;;;;19.78;64.06;101862.31;5033378;28;20045;-53
2021/06/15 01:29:30;;;;;;;14.27;8.50;;;;;;;19.65;64.40;101865.81;5000641;28;20057;-51
2021/06/15 01:32:07;;;;;;;17.65;9.63;;;;;;;19.61;64.32;101875.88;5017054;28;20049;-50
2021/06/15 01:34:38;;;;;;;16.65;9.23;;;;;;;19.56;64.58;101877.59;5016154;28;20384;-50
2021/06/15 01:37:15;;;;;;;16.35;9.15;;;;;;;19.67;64.18;101880.16;5000772;28;20045;-51
2021/06/15 01:39:54;;;;;;;16.58;9.20;;;;;;;19.77;63.82;101868.94;5016650;28;20045;-53
2021/06/15 01:42:48;;;;;;;16.33;9.25;;;;;;;19.77;63.76;101880.00;5032980;28;20034;-52
2021/06/15 01:45:31;;;;;;;15.23;8.98;;;;;;;19.83;63.46;101878.81;5032956;28;20048;-53
2021/06/15 01:48:12;;;;;;;15.23;8.77;;;;;;;19.88;62.94;101887.00;5066016;28;20553;-52
2021/06/15 01:50:44;;;;;;;14.45;9.18;;;;;;;19.78;63.29;101890.78;5074678;28;20403;-52
2021/06/15 01:53:16;;;;;;;19.08;9.40;;;;;;;19.65;63.65;101893.47;5057589;28;20051;-53
2021/06/15 01:55:48;;;;;;;21.15;9.60;;;;;;;19.65;63.62;101887.94;5057344;28;20037;-52
2021/06/15 01:58:22;;;;;;;15.85;9.20;;;;;;;19.56;63.96;101901.66;5056772;28;20410;-49
2021/06/15 02:00:51;;;;;;;14.88;8.75;;;;;;;19.55;63.75;101900.00;5057237;28;20047;-50
2021/06/15 02:03:19;;;;;;;14.35;8.48;;;;;;;19.56;63.70;101901.66;5073378;28;20445;-54
2021/06/15 02:05:58;;;;;;;16.40;8.88;;;;;;;19.62;63.33;101910.69;5056999;28;20075;-53
2021/06/15 02:08:32;;;;;;;14.48;7.97;;;;;;;19.64;63.08;101906.47;5074754;28;20036;-52
2021/06/15 02:11:04;;;;;;;14.68;8.18;;;;;;;19.67;62.92;101908.63;5057095;28;20044;-49
2021/06/15 02:13:51;;;;;;;12.10;7.80;;;;;;;19.66;62.95;101911.72;5073911;28;20123;-51
2021/06/15 02:16:39;;;;;;;14.82;8.32;;;;;;;19.68;62.86;101909.50;5066306;28;20044;-50
2021/06/15 02:19:20;;;;;;;15.32;7.53;;;;;;;19.65;62.77;101910.06;5058153;28;20520;-51
2021/06/15 02:21:59;;;;;;;13.98;7.38;;;;;;;19.64;62.74;101912.00;5055827;28;20099;-48
2021/06/15 02:24:39;;;;;;;11.23;7.65;;;;;;;19.63;62.82;101912.34;5052544;28;20044;-50
2021/06/15 02:27:09;;;;;;;14.45;8.98;;;;;;;19.64;62.75;101919.50;5057027;28;20041;-53
2021/06/15 02:29:39;;;;;;;14.10;7.68;;;;;;;19.59;62.76;101914.88;5056773;28;20048;-51
2021/06/15 02:32:09;;;;;;;14.73;7.63;;;;;;;19.58;62.75;101910.47;5072851;28;20106;-50
2021/06/15 02:34:46;;;;;;;13.68;7.60;;;;;;;19.59;62.37;101920.41;5056338;28;20048;-53
2021/06/15 02:37:29;;;;;;;13.75;7.35;;;;;;;19.52;62.50;101918.00;5056421;28;20063;-53
2021/06/15 02:39:58;;;;;;;14.40;7.82;;;;;;;19.52;62.47;101918.00;5072660;28;20048;-51
2021/06/15 02:42:28;;;;;;;14.95;7.30;;;;;;;19.46;62.50;101918.38;5056439;28;20063;-50
2021/06/15 02:44:59;;;;;;;11.88;6.07;;;;;;;19.37;62.71;101910.81;5056906;28;20036;-51
2021/06/15 02:47:28;;;;;;;13.30;6.60;;;;;;;19.39;62.80;101912.47;5056220;28;20041;-52
2021/06/15 02:49:59;;;;;;;14.55;7.15;;;;;;;19.42;62.62;101920.94;5072463;28;20079;-51
2021/06/15 02:53:07;;;;;;;11.60;6.20;;;;;;;19.50;62.19;101917.50;5072586;28;20047;-47
2021/06/15 02:55:45;;;;;;;11.25;6.47;;;;;;;19.50;61.98;101914.72;5015101;28;20532;-52
2021/06/15 02:58:13;;;;;;;15.32;6.75;;;;;;;19.46;62.10;101913.72;5015079;28;20443;-52
2021/06/15 03:00:41;;;;;;;12.65;6.82;;;;;;;19.37;62.11;101912.75;5014986;28;20072;-51
2021/06/15 03:03:09;;;;;;;15.88;6.70;;;;;;;19.09;62.96;101915.38;5014935;28;20045;-51
2021/06/15 03:05:37;;;;;;;11.25;6.53;;;;;;;18.98;63.44;101913.91;5031308;28;20041;-54
2021/06/15 03:08:07;;;;;;;9.93;5.75;;;;;;;19.04;63.53;101918.22;5031363;28;20041;-52
2021/06/15 03:10:38;;;;;;;11.13;6.25;;;;;;;19.11;63.18;101918.66;5030202;28;20169;-52
2021/06/15 03:13:17;;;;;;;11.90;6.57;;;;;;;19.08;62.99;101919.25;5031364;28;20041;-52
2021/06/15 03:15:49;;;;;;;11.80;7.00;;;;;;;18.91;63.71;101925.31;5001056;28;20057;-51
2021/06/15 03:18:31;;;;;;;10.93;6.15;;;;;;;18.90;63.74;101922.81;5014742;28;20096;-52
2021/06/15 03:21:02;;;;;;;13.18;7.03;;;;;;;18.97;63.63;101928.00;4998447;28;20073;-52
2021/06/15 03:23:48;;;;;;;11.40;6.05;;;;;;;19.05;63.41;101930.91;4998148;28;20115;-50
2021/06/15 03:26:39;;;;;;;11.98;7.07;;;;;;;19.13;62.96;101930.22;4998936;28;20041;-49
2021/06/15 03:29:11;;;;;;;10.73;6.03;;;;;;;19.02;63.34;101925.97;5014143;28;20042;-51
2021/06/15 03:31:41;;;;;;;9.73;6.30;;;;;;;18.98;63.37;101930.47;5038556;28;20426;-51
2021/06/15 03:34:14;;;;;;;11.23;6.75;;;;;;;18.86;63.67;101932.84;5055571;28;20376;-52
2021/06/15 03:36:44;;;;;;;12.00;6.60;;;;;;;18.85;63.88;101937.53;5055855;28;20110;-51
2021/06/15 03:39:17;;;;;;;10.18;6.20;;;;;;;18.86;63.79;101933.66;5072567;28;20048;-52
2021/06/15 03:41:45;;;;;;;11.57;6.32;;;;;;;18.94;63.73;101943.22;5071655;28;20053;-52
2021/06/15 03:44:14;;;;;;;11.32;6.05;;;;;;;18.95;63.44;101950.38;5071358;28;20048;-52
2021/06/15 03:46:42;;;;;;;11.15;6.20;;;;;;;18.99;63.26;101954.19;5072011;28;20053;-53
2021/06/15 03:49:12;;;;;;;13.43;6.30;;;;;;;19.06;63.05;101948.31;5071616;28;20033;-53
2021/06/15 03:51:47;;;;;;;12.15;6.65;;;;;;;19.07;62.61;101944.41;5071323;28;20105;-51
2021/06/15 03:54:15;;;;;;;11.95;6.10;;;;;;;19.03;62.93;101954.44;5071699;28;20058;-50
2021/06/15 03:56:47;;;;;;;14.55;6.70;;;;;;;19.01;62.73;101962.19;5072507;28;20040;-54
2021/06/15 03:59:18;;;;;;;12.13;6.50;;;;;;;18.99;62.87;101965.25;5071536;28;20064;-49
2021/06/15 04:01:47;;;;;;;9.88;5.65;;;;;;;18.91;63.22;101963.16;5074165;28;20098;-54
2021/06/15 04:04:16;;;;;;;14.25;5.72;;;;;;;18.91;63.07;101968.69;5076151;28;20052;-55
2021/06/15 04:06:49;;;;;;;12.93;6.43;;;;;;;18.94;62.88;101968.06;5072274;28;20047;-53
2021/06/15 04:09:22;;;;;;;13.38;6.90;;;;;;;18.89;62.84;101970.91;5072344;28;20090;-54
2021/06/15 04:11:52;;;;;;;13.90;5.78;;;;;;;18.76;63.07;101972.47;5072152;28;20090;-50
2021/06/15 04:14:21;;;;;;;11.13;5.70;;;;;;;18.79;63.22;101965.53;5072810;28;20048;-51
2021/06/15 04:16:49;;;;;;;12.73;6.30;;;;;;;18.71;63.14;101976.06;5072547;28;20150;-51
2021/06/15 04:19:25;;;;;;;13.60;5.60;;;;;;;18.55;63.84;101980.13;5071482;28;20029;-53
2021/06/15 04:21:54;;;;;;;10.65;6.13;;;;;;;18.57;63.99;101979.81;5070361;28;20044;-51
2021/06/15 04:24:24;;;;;;;9.40;5.10;;;;;;;18.58;63.90;101976.78;5071288;28;20048;-50
2021/06/15 04:26:53;;;;;;;13.95;5.88;;;;;;;18.65;63.83;101976.44;5070993;28;20075;-54
2021/06/15 04:29:22;;;;;;;9.65;5.30;;;;;;;18.70;63.47;101974.41;5071318;28;20491;-51
2021/06/15 04:31:54;;;;;;;12.98;5.68;;;;;;;18.58;63.66;101975.97;5071825;28;20113;-50
2021/06/15 04:34:23;;;;;;;12.15;5.95;;;;;;;18.58;63.92;101962.16;5070729;28;20048;-51
2021/06/15 04:36:56;;;;;;;10.52;5.57;;;;;;;18.57;63.79;101961.34;5071088;28;20442;-51
2021/06/15 04:39:31;;;;;;;10.40;5.72;;;;;;;18.56;63.90;101962.44;5073472;28;20048;-51
2021/06/15 04:42:04;;;;;;;12.25;5.07;;;;;;;18.54;64.02;101970.19;5072760;28;20040;-52
2021/06/15 04:44:36;;;;;;;10.38;4.70;;;;;;;18.63;63.73;101957.38;5073876;28;20576;-55
2021/06/15 04:47:13;;;;;;;11.32;6.03;;;;;;;18.65;63.44;101959.88;5072913;28;20041;-50
2021/06/15 04:49:55;;;;;;;11.88;5.80;;;;;;;18.55;63.44;101960.81;5072344;28;20048;-52
2021/06/15 04:52:27;;;;;;;12.13;5.10;;;;;;;18.46;63.90;101970.84;5073494;28;20098;-55
2021/06/15 04:54:57;;;;;;;10.05;5.13;;;;;;;18.46;64.06;101963.38;5072427;28;20060;-53
2021/06/15 04:57:27;;;;;;;10.80;5.32;;;;;;;18.57;63.77;101968.78;5061689;28;20106;-50
2021/06/15 05:00:00;;;;;;;10.88;4.72;;;;;;;18.70;63.16;101966.13;5051430;28;20045;-52
2021/06/15 05:02:29;;;;;;;7.60;4.28;;;;;;;18.71;62.59;101973.31;5051528;28;20480;-50
2021/06/15 05:04:57;;;;;;;10.65;5.40;;;;;;;18.64;62.85;101981.13;5052533;28;20499;-50
2021/06/15 05:07:25;;;;;;;11.48;5.53;;;;;;;18.64;62.83;101985.81;5049120;28;20067;-50
2021/06/15 05:10:12;;;;;;;11.30;5.40;;;;;;;18.70;62.44;101982.69;5038066;28;20045;-51
2021/06/15 05:12:44;;;;;;;11.15;5.10;;;;;;;18.76;62.45;101988.16;5051214;28;20041;-48
2021/06/15 05:15:14;;;;;;;9.20;4.93;;;;;;;18.79;62.33;101987.63;5051479;28;20060;-47
2021/06/15 05:17:47;;;;;;;11.38;5.13;;;;;;;18.78;62.06;101991.47;5050486;28;20049;-46
2021/06/15 05:20:16;;;;;;;9.15;5.03;;;;;;;18.70;62.27;102002.03;5051114;28;20056;-47
2021/06/15 05:22:57;;;;;;;12.02;4.90;;;;;;;18.72;62.24;102001.75;5050676;28;20049;-54
2021/06/15 05:25:25;;;;;;;8.98;4.90;;;;;;;18.77;62.01;102006.41;5050408;28;20103;-50
2021/06/15 05:27:53;;;;;;;34.53;7.05;;;;;;;18.85;61.92;102009.31;5050874;28;20504;-52
2021/06/15 05:30:22;;;;;;;13.50;5.28;;;;;;;18.90;61.82;102005.69;5050854;28;20096;-59
2021/06/15 05:32:50;;;;;;;13.00;4.60;;;;;;;18.91;61.57;102001.81;5051731;28;20045;-49
2021/06/15 05:35:18;;;;;;;11.18;5.00;;;;;;;18.99;61.06;102001.16;5054855;28;20103;-49
2021/06/15 05:37:46;;;;;;;9.77;4.80;;;;;;;18.91;61.33;102012.88;5054494;28;20045;-50
2021/06/15 05:40:14;;;;;;;12.63;4.88;;;;;;;18.76;61.67;102026.81;5037120;28;20483;-49
2021/06/15 05:42:42;;;;;;;8.63;4.43;;;;;;;18.70;61.84;102026.88;5054586;28;20099;-48
2021/06/15 05:45:11;;;;;;;10.20;4.82;;;;;;;18.72;62.00;102027.41;5033313;28;20056;-50
2021/06/15 05:47:39;;;;;;;8.35;4.40;;;;;;;18.73;61.79;102026.28;5048888;28;20069;-50
2021/06/15 05:50:07;;;;;;;16.75;5.50;;;;;;;18.82;61.48;102032.03;5054486;28;20072;-48
2021/06/15 05:52:35;;;;;;;12.25;4.65;;;;;;;18.84;60.90;102028.97;5053984;28;20056;-50
2021/06/15 05:55:04;;;;;;;12.63;4.10;;;;;;;18.82;61.18;102020.16;5053779;28;20041;-49
2021/06/15 05:57:32;;;;;;;10.50;3.90;;;;;;;18.90;60.83;102025.00;5054551;28;20069;-47
2021/06/15 05:59:59;;;;;;;17.30;5.00;;;;;;;18.86;60.27;102022.03;5054231;28;20504;-52
2021/06/15 06:02:27;;;;;;;14.98;4.80;;;;;;;18.80;59.99;102022.38;5053880;28;20049;-49
2021/06/15 06:10:11;;;;;;;9.20;4.05;;;;;;;18.85;59.52;102019.56;5053968;28;20049;-49
2021/06/15 06:12:39;;;;;;;10.13;3.92;;;;;;;18.82;59.63;102020.16;5054114;28;20551;-48
2021/06/15 06:15:08;;;;;;;7.95;4.20;;;;;;;18.81;59.71;102018.50;5053600;28;20041;-48
2021/06/15 06:17:36;;;;;;;9.93;4.35;;;;;;;18.75;59.00;102014.94;5033222;28;20068;-49
2021/06/15 06:20:13;;;;;;;8.93;3.60;;;;;;;18.83;58.71;102027.31;5034516;28;20041;-52
2021/06/15 06:22:41;;;;;;;7.45;3.80;;;;;;;18.85;58.48;102030.59;5053348;28;20032;-50
2021/06/15 06:25:11;;;;;;;15.20;4.47;;;;;;;18.87;58.67;102020.91;5053361;28;20045;-50
2021/06/15 06:27:39;;;;;;;10.02;3.65;;;;;;;18.92;58.71;102014.50;5053945;28;20077;-47
2021/06/15 06:30:08;;;;;;;9.85;3.90;;;;;;;19.02;58.35;102025.41;5058886;28;20052;-51
2021/06/15 06:32:36;;;;;;;11.63;3.95;;;;;;;19.03;57.85;102029.03;5069913;28;20487;-48
2021/06/15 06:35:05;;;;;;;9.60;4.38;;;;;;;19.00;58.09;102037.88;5073957;28;20037;-49
2021/06/15 06:37:33;;;;;;;7.30;3.90;;;;;;;18.99;58.02;102031.53;5073080;28;20082;-50
2021/06/15 06:40:05;;;;;;;8.88;4.18;;;;;;;18.90;57.73;102033.31;5073745;28;20048;-46
2021/06/15 06:42:33;;;;;;;6.32;3.30;;;;;;;18.83;57.61;102035.59;5055842;28;20090;-47
2021/06/15 06:45:01;;;;;;;9.30;3.47;;;;;;;18.88;57.37;102049.34;5073796;28;20041;-52
2021/06/15 06:47:29;;;;;;;9.18;3.80;;;;;;;18.90;57.64;102045.16;5073528;28;20505;-49
2021/06/15 06:49:56;;;;;;;9.00;3.90;;;;;;;18.88;56.81;102046.56;5073585;28;20032;-50
2021/06/15 06:52:24;;;;;;;7.72;3.28;;;;;;;18.90;56.73;102044.34;5072479;28;20052;-50
2021/06/15 06:54:52;;;;;;;7.32;3.63;;;;;;;18.95;56.55;102044.28;5073695;28;20086;-51
2021/06/15 06:57:19;;;;;;;11.02;3.40;;;;;;;18.90;55.41;102047.09;5073808;28;20044;-49
2021/06/15 06:59:47;;;;;;;6.35;3.10;;;;;;;18.99;55.53;102052.81;5073243;28;20048;-50
2021/06/15 07:02:29;;;;;;;8.05;3.50;;;;;;;18.94;54.36;102045.41;4847642;28;10000565;-50
2021/06/15 07:04:56;;;;;;;6.70;2.83;;;;;;;18.90;53.87;102055.41;5070819;28;20343;-51
2021/06/15 07:07:24;;;;;;;7.13;3.40;;;;;;;18.91;54.44;102054.28;5070283;28;20075;-50
2021/06/15 07:09:51;;;;;;;7.28;3.17;;;;;;;18.91;54.76;102052.34;5071269;28;20045;-49
2021/06/15 07:12:19;;;;;;;9.00;3.03;;;;;;;18.99;54.64;102053.63;5070880;28;20484;-51
2021/06/15 07:14:47;;;;;;;14.68;3.42;;;;;;;18.95;54.02;102066.38;5070870;28;20047;-50
2021/06/15 07:17:15;;;;;;;13.88;3.50;;;;;;;18.90;53.71;102072.78;5053088;28;20044;-51
2021/06/15 07:19:43;;;;;;;8.10;2.88;;;;;;;18.92;54.11;102070.56;5070576;28;20502;-50
2021/06/15 07:22:10;;;;;;;28.10;5.43;;;;;;;19.00;54.16;102066.34;5070049;28;20542;-50
2021/06/15 07:24:38;;;;;;;11.27;3.38;;;;;;;19.04;54.24;102072.09;5071048;28;20073;-50
2021/06/15 07:27:06;;;;;;;9.13;3.40;;;;;;;19.03;54.27;102082.31;5072640;28;20404;-52
2021/06/15 07:29:33;;;;;;;6.07;3.08;;;;;;;18.99;54.27;102075.72;5072661;28;20122;-45
2021/06/15 07:32:01;;;;;;;7.00;2.85;;;;;;;18.98;54.59;102057.53;5073004;28;20053;-48
2021/06/15 07:34:29;;;;;;;7.35;3.10;;;;;;;19.03;53.75;102060.22;5072477;28;20382;-51
2021/06/15 07:36:56;;;;;;;7.88;3.05;;;;;;;18.96;51.85;102070.81;5072451;28;20044;-51
2021/06/15 07:39:24;;;;;;;11.05;3.35;;;;;;;18.97;52.32;102077.16;5069343;28;20147;-48
2021/06/15 07:41:52;;;;;;;10.70;3.83;;;;;;;19.04;52.77;102077.59;5072691;28;20048;-52
2021/06/15 07:44:19;;;;;;;12.23;3.25;;;;;;;19.11;52.29;102072.56;5072371;28;20072;-50
2021/06/15 07:46:47;;;;;;;16.23;4.50;;;;;;;19.20;51.87;102070.78;5072472;28;20094;-53
2021/06/15 07:49:15;;;;;;;7.80;3.10;;;;;;;19.27;51.24;102073.19;5072910;28;20053;-51
2021/06/15 07:51:42;;;;;;;10.45;2.88;;;;;;;19.28;51.07;102072.06;5072507;28;20458;-54
2021/06/15 07:54:30;;;;;;;9.55;3.20;;;;;;;19.32;50.30;102067.59;5072453;28;20080;-53
2021/06/15 07:56:57;;;;;;;9.02;3.38;;;;;;;19.34;50.37;102070.88;5072174;28;20078;-52
2021/06/15 07:59:25;;;;;;;6.07;2.92;;;;;;;19.28;50.51;102072.06;5073101;28;20102;-53
2021/06/15 08:01:53;;;;;;;6.57;2.70;;;;;;;19.24;50.89;102071.00;5072253;28;20392;-52
2021/06/15 08:04:25;;;;;;;8.13;2.80;;;;;;;19.21;50.73;102063.31;5070623;28;20044;-51
2021/06/15 08:06:53;;;;;;;7.72;2.65;;;;;;;19.22;49.53;102073.22;5071891;28;20415;-54
2021/06/15 08:09:20;;;;;;;8.07;2.80;;;;;;;19.19;49.81;102073.84;5064007;28;20040;-54
2021/06/15 08:11:48;;;;;;;14.55;3.40;;;;;;;19.27;49.96;102064.91;5071934;28;20114;-54
2021/06/15 08:14:16;;;;;;;10.43;2.80;;;;;;;19.35;49.65;102058.69;5071684;28;20098;-51
2021/06/15 08:16:43;;;;;;;11.30;3.03;;;;;;;19.36;49.37;102057.56;5071823;28;20055;-53
2021/06/15 08:19:11;;;;;;;9.57;2.47;;;;;;;19.40;49.78;102060.56;5071854;28;20034;-54
2021/06/15 08:21:39;;;;;;;8.45;2.58;;;;;;;19.52;49.82;102056.25;5071413;28;20098;-51
2021/06/15 08:24:09;;;;;;;5.55;2.50;;;;;;;19.54;47.54;102054.00;5071731;28;20064;-51
2021/06/15 08:26:36;;;;;;;9.48;2.70;;;;;;;19.56;47.74;102062.81;5071940;28;20040;-49
2021/06/15 08:29:04;;;;;;;8.70;2.55;;;;;;;19.59;48.72;102056.69;5071449;28;20499;-51
2021/06/15 08:31:32;;;;;;;11.00;3.53;;;;;;;19.56;49.50;102057.28;5071787;28;20052;-52
2021/06/15 08:33:59;;;;;;;8.38;2.75;;;;;;;19.50;48.87;102064.00;5071321;28;20060;-53
2021/06/15 08:36:27;;;;;;;8.85;2.55;;;;;;;19.48;48.60;102069.03;5071937;28;20052;-53
2021/06/15 08:38:55;;;;;;;8.65;2.10;;;;;;;19.53;48.60;102062.59;5068780;28;20049;-52
2021/06/15 08:41:23;;;;;;;8.35;2.40;;;;;;;19.48;48.31;102066.28;5072045;28;20037;-51
2021/06/15 08:43:50;;;;;;;6.38;2.35;;;;;;;19.44;49.26;102073.50;5064401;28;20166;-51
2021/06/15 08:46:19;;;;;;;11.07;2.92;;;;;;;19.37;48.61;102064.75;5053174;28;20063;-51
2021/06/15 08:48:47;;;;;;;8.38;2.97;;;;;;;19.30;48.49;102059.59;5050302;28;20049;-51
2021/06/15 08:51:14;;;;;;;9.45;2.20;;;;;;;19.30;48.50;102061.53;5049962;28;20090;-51
2021/06/15 08:53:42;;;;;;;9.00;2.60;;;;;;;19.38;48.83;102052.56;5051363;28;20389;-52
2021/06/15 08:56:22;;;;;;;9.20;2.25;;;;;;;19.44;48.86;102053.34;5047828;28;20077;-49
2021/06/15 08:59:05;;;;;;;10.63;2.95;;;;;;;19.52;49.04;102049.91;5050605;28;20068;-48
2021/06/15 09:01:33;;;;;;;8.70;2.70;;;;;;;19.64;48.88;102047.50;5051741;28;20045;-48
2021/06/15 09:04:01;;;;;;;5.55;2.40;;;;;;;19.73;48.37;102050.44;5051263;28;20077;-50
2021/06/15 09:06:29;;;;;;;8.43;2.28;;;;;;;19.79;48.41;102050.06;5051662;28;20041;-50
2021/06/15 09:08:59;;;;;;;7.45;2.70;;;;;;;19.80;47.76;102050.91;5054496;28;20094;-49
2021/06/15 09:11:44;;;;;;;9.85;2.70;;;;;;;19.82;47.21;102048.66;5055811;28;20487;-48
2021/06/15 09:14:12;;;;;;;7.45;2.53;;;;;;;19.85;47.05;102048.03;5041463;28;20081;-50
2021/06/15 09:16:45;;;;;;;7.20;2.15;;;;;;;19.85;47.40;102047.22;5051635;28;20033;-52
2021/06/15 09:19:23;;;;;;;10.18;2.05;;;;;;;19.90;46.44;102050.72;5055869;28;20037;-50
2021/06/15 09:21:53;;;;;;;7.47;2.55;;;;;;;19.93;46.89;102044.59;5055447;28;20041;-47
2021/06/15 09:24:26;;;;;;;5.72;2.58;;;;;;;19.88;47.12;102041.91;5055162;28;20098;-48
2021/06/15 09:27:06;;;;;;;7.95;2.28;;;;;;;19.88;46.97;102055.72;5054190;28;20107;-49
2021/06/15 09:29:54;;;;;;;6.72;2.20;;;;;;;19.99;47.04;102043.38;5055415;28;20389;-50
2021/06/15 09:32:36;;;;;;;5.40;2.33;;;;;;;20.10;46.70;102048.75;5072224;28;20117;-49
2021/06/15 09:35:15;;;;;;;4.35;2.05;;;;;;;20.05;45.77;102046.06;5075099;28;20098;-53
2021/06/15 09:37:51;;;;;;;7.45;2.42;;;;;;;19.98;44.97;102052.78;5075406;28;20110;-52
2021/06/15 09:40:27;;;;;;;7.78;1.92;;;;;;;20.00;44.97;102044.19;5075236;28;20036;-52
2021/06/15 09:43:10;;;;;;;4.45;1.58;;;;;;;20.07;45.31;102032.75;5058247;28;20453;-53
2021/06/15 09:45:46;;;;;;;6.90;1.70;;;;;;;20.16;46.22;102042.81;5077781;28;20053;-53
2021/06/15 09:48:31;;;;;;;7.30;1.80;;;;;;;20.28;45.79;102039.56;5077393;28;20138;-52
2021/06/15 09:51:02;;;;;;;4.07;1.65;;;;;;;20.34;45.41;102054.94;5074581;28;20055;-54
2021/06/15 09:53:32;;;;;;;7.18;2.10;;;;;;;20.40;45.21;102044.63;5071241;28;20056;-51
2021/06/15 09:56:03;;;;;;;4.65;1.80;;;;;;;20.50;45.63;102038.06;5075080;28;20068;-53
2021/06/15 09:58:47;;;;;;;3.25;1.60;;;;;;;20.59;45.08;102036.28;5074530;28;20488;-51
2021/06/15 10:01:43;;;;;;;6.53;2.10;;;;;;;20.66;44.91;102033.94;5073865;28;20492;-49
2021/06/15 10:04:11;;;;;;;4.10;1.83;;;;;;;20.67;44.20;102043.84;5064717;28;20445;-53
2021/06/15 10:06:48;;;;;;;4.93;1.77;;;;;;;20.72;45.19;102038.22;5074442;28;20048;-50
2021/06/15 10:09:22;;;;;;;;;;;;;;;20.76;44.45;102033.72;5074996;28;20036;-51
2021/06/15 10:12:09;;;;;;;5.30;2.00;;;;;;;20.85;44.13;102031.88;5074500;28;19974;-52
2021/06/15 10:14:38;;;;;;;2.97;1.50;;;;;;;20.99;43.41;102036.56;5074501;28;20041;-48
2021/06/15 10:17:06;;;;;;;6.65;1.95;;;;;;;21.03;43.46;102043.13;5073848;28;20076;-49
2021/06/15 10:19:34;;;;;;;6.63;2.00;;;;;;;21.03;43.90;102043.13;5055885;28;20123;-54
2021/06/15 10:22:02;;;;;;;4.88;1.95;;;;;;;20.94;43.61;102050.53;5056544;28;20032;-49
2021/06/15 10:24:30;;;;;;;5.47;2.20;;;;;;;20.83;43.53;102039.66;5074202;28;20045;-52
2021/06/15 10:27:06;;;;;;;5.97;2.00;;;;;;;20.78;43.87;102034.22;5073999;28;20052;-47
2021/06/15 10:29:36;;;;;;;4.78;1.77;;;;;;;20.78;44.29;102042.53;4370398;28;10000613;-51
2021/06/15 10:32:16;;;;;;;7.38;2.30;;;;;;;20.72;44.37;102027.13;5067676;28;20122;-50
2021/06/15 10:35:07;;;;;;;6.88;2.30;;;;;;;20.73;44.26;102027.94;5071694;28;20053;-54
2021/06/15 10:37:35;;;;;;;8.23;2.25;;;;;;;20.70;44.25;102023.84;5072077;28;20518;-48
2021/06/15 10:40:17;;;;;;;5.85;1.95;;;;;;;20.66;43.74;102030.31;5072150;28;20441;-54
2021/06/15 10:43:26;;;;;;;6.55;2.17;;;;;;;20.70;43.86;102031.34;5071584;28;20491;-53
2021/06/15 10:46:14;;;;;;;8.23;1.92;;;;;;;20.78;42.68;102037.00;5071471;28;20517;-53
2021/06/15 10:48:44;;;;;;;5.18;1.92;;;;;;;20.84;42.63;102032.97;5060655;28;20045;-53
2021/06/15 10:51:20;;;;;;;6.38;2.20;;;;;;;20.88;42.65;102026.81;5071690;28;20041;-50
2021/06/15 10:53:49;;;;;;;7.25;2.40;;;;;;;20.91;42.78;102023.44;5071080;28;20052;-53
2021/06/15 10:56:23;;;;;;;5.43;2.47;;;;;;;20.92;43.22;102025.06;5071594;28;20048;-53
2021/06/15 10:58:54;;;;;;;7.28;2.60;;;;;;;20.97;44.23;102024.97;5071237;28;20052;-51
2021/06/15 11:01:27;;;;;;;5.95;2.97;;;;;;;20.98;45.70;102015.53;5071753;28;20045;-53
2021/06/15 11:03:59;;;;;;;8.13;2.67;;;;;;;21.01;45.79;102012.16;5071586;28;20072;-52
2021/06/15 11:06:30;;;;;;;5.75;2.65;;;;;;;21.01;46.29;102003.84;5071047;28;20109;-51
2021/06/15 11:09:04;;;;;;;10.40;3.00;;;;;;;21.05;47.45;102010.41;5071400;28;20419;-48
2021/06/15 11:11:33;;;;;;;7.72;2.75;;;;;;;21.08;47.40;102004.22;5071016;28;20057;-49
2021/06/15 11:14:21;;;;;;;11.07;2.85;;;;;;;21.10;46.60;102004.75;5070954;28;20507;-51
2021/06/15 11:16:56;;;;;;;8.07;2.70;;;;;;;21.11;46.48;101995.28;5070667;28;20044;-49
2021/06/15 11:19:23;;;;;;;7.75;2.60;;;;;;;21.12;46.97;101993.31;5069521;28;20101;-51
2021/06/15 11:21:53;;;;;;;10.02;2.60;;;;;;;21.11;47.12;101992.50;5072786;28;20094;-50
2021/06/15 11:24:36;;;;;;;9.15;2.88;;;;;;;21.16;47.59;101992.41;5072887;28;20036;-52
2021/06/15 11:27:06;;;;;;;11.63;2.70;;;;;;;21.22;47.11;101998.66;5072537;28;20071;-55
2021/06/15 11:29:38;;;;;;;9.93;2.75;;;;;;;21.26;46.66;101992.19;5054736;28;20087;-53
2021/06/15 11:32:16;;;;;;;11.40;2.60;;;;;;;21.35;46.53;101999.75;5072390;28;20067;-52
2021/06/15 11:35:04;;;;;;;7.63;2.47;;;;;;;21.44;45.37;102004.28;5072860;28;20045;-50
2021/06/15 11:37:38;;;;;;;8.40;2.55;;;;;;;21.47;45.16;102005.59;5072535;28;20044;-51
2021/06/15 11:40:16;;;;;;;7.40;2.47;;;;;;;21.45;44.57;101997.59;5072266;28;20440;-49
2021/06/15 11:42:53;;;;;;;11.93;2.25;;;;;;;21.49;43.07;101997.78;5072105;28;20348;-57
2021/06/15 11:45:20;;;;;;;6.72;2.10;;;;;;;21.56;42.98;102006.50;5072842;28;20491;-50
2021/06/15 11:47:55;;;;;;;5.55;2.20;;;;;;;21.60;43.02;102006.66;5072381;28;20052;-51